Terminal Aerodrome Forecast
Issued by NWS

Home | Current Version | Previous Version | Text Only | Print | Product List | Glossary On
Versions: 1 2 3 4 5 6 7 8 9 10 11 12 13 14 15 16
509
FTUS44 KLZK 281736
TAFHOT
TAF
KHOT 281736Z 2818/2918 27009KT P6SM VCSH BKN025 BKN050
     FM290100 26006KT P6SM SCT050 SCT250
     FM291300 04006KT P6SM FEW050 SCT250=

USA.gov is the U.S. government's official web portal to all federal, state and local government web resources and services.